createdAt,value
2018-05-10T00:01:21.866Z,98379
2018-05-10T00:03:25.776Z,98380
2018-05-10T00:05:29.683Z,98383
2018-05-10T00:07:32.855Z,98388
2018-05-10T00:09:36.006Z,98377
2018-05-10T00:11:39.181Z,98390
2018-05-10T00:13:42.332Z,98386
2018-05-10T00:15:45.472Z,98394
2018-05-10T00:17:48.643Z,98388
2018-05-10T00:19:51.788Z,98396
2018-05-10T00:21:54.964Z,98396
2018-05-10T00:23:58.880Z,98392
2018-05-10T00:26:02.056Z,98397
2018-05-10T00:28:05.226Z,98398
2018-05-10T00:30:08.405Z,98394
2018-05-10T00:32:11.576Z,98396
2018-05-10T00:34:14.720Z,98396
2018-05-10T00:36:18.669Z,98392
2018-05-10T00:38:22.604Z,98388
2018-05-10T00:40:25.751Z,98384
2018-05-10T00:42:29.711Z,98388
2018-05-10T00:44:32.868Z,98387
2018-05-10T00:46:36.010Z,98393
2018-05-10T00:48:39.175Z,98393
2018-05-10T00:50:42.321Z,98389
2018-05-10T00:52:45.491Z,98388
2018-05-10T00:54:59.011Z,98392
2018-05-10T00:57:02.949Z,98391
2018-05-10T00:59:06.090Z,98387
2018-05-10T01:01:09.233Z,98389
2018-05-10T01:03:12.414Z,98385
2018-05-10T01:05:15.620Z,98382
2018-05-10T01:07:18.818Z,98390
2018-05-10T01:09:21.972Z,98389
2018-05-10T01:11:25.111Z,98386
2018-05-10T01:13:28.316Z,98381
2018-05-10T01:15:31.459Z,98390
2018-05-10T01:17:34.626Z,98394
2018-05-10T01:19:37.797Z,98397
2018-05-10T01:21:42.426Z,98394
2018-05-10T01:23:45.596Z,98394
2018-05-10T01:25:48.730Z,98397
2018-05-10T01:27:51.903Z,98397
2018-05-10T01:29:55.085Z,98404
2018-05-10T01:31:59.035Z,98398
2018-05-10T01:34:02.229Z,98397
2018-05-10T01:36:15.098Z,98398
2018-05-10T01:38:18.270Z,98398
2018-05-10T01:40:21.830Z,98405
2018-05-10T01:42:24.983Z,98407
2018-05-10T01:44:28.319Z,98406
2018-05-10T01:46:31.463Z,98409
2018-05-10T01:48:34.632Z,98409
2018-05-10T01:50:37.779Z,98413
2018-05-10T01:52:41.960Z,98418
2018-05-10T01:54:45.869Z,98420
2018-05-10T01:56:49.015Z,98424
2018-05-10T01:58:52.182Z,98427
2018-05-10T02:00:55.343Z,98426
2018-05-10T02:02:58.520Z,98418
2018-05-10T02:05:02.079Z,98426
2018-05-10T02:07:05.588Z,98426
2018-05-10T02:09:09.134Z,98425
2018-05-10T02:11:12.938Z,98431
2018-05-10T02:13:16.377Z,98425
2018-05-10T02:15:19.578Z,98429
2018-05-10T02:17:23.042Z,98428
2018-05-10T02:19:26.711Z,98434
2018-05-10T02:21:30.203Z,98428
2018-05-10T02:23:33.751Z,98438
2018-05-10T02:25:36.898Z,98431
2018-05-10T02:27:40.912Z,98434
2018-05-10T02:29:44.463Z,98437
2018-05-10T02:31:47.695Z,98433
2018-05-10T02:33:50.886Z,98436
2018-05-10T02:35:54.029Z,98433
2018-05-10T02:37:57.177Z,98437
2018-05-10T02:40:00.346Z,98436
2018-05-10T02:42:03.504Z,98444
2018-05-10T02:44:06.684Z,98447
2018-05-10T02:46:10.601Z,98446
2018-05-10T02:48:14.552Z,98450
2018-05-10T02:50:17.727Z,98439
2018-05-10T02:52:20.880Z,98450
2018-05-10T02:54:24.667Z,98451
2018-05-10T02:56:28.588Z,98447
2018-05-10T02:58:32.504Z,98448
2018-05-10T03:00:35.692Z,98447
2018-05-10T03:02:38.896Z,98458
2018-05-10T03:04:42.715Z,98455
2018-05-10T03:06:45.872Z,98453
2018-05-10T03:08:49.800Z,98455
2018-05-10T03:10:53.816Z,98459
2018-05-10T03:12:56.963Z,98461
2018-05-10T03:15:00.130Z,98470
2018-05-10T03:17:03.279Z,98484
2018-05-10T03:19:06.432Z,98486
2018-05-10T03:21:09.601Z,98476
2018-05-10T03:23:12.756Z,98492
2018-05-10T03:25:15.939Z,98481
2018-05-10T03:27:19.095Z,98477
2018-05-10T03:29:23.635Z,98479
2018-05-10T03:31:27.575Z,98482
2018-05-10T03:33:30.743Z,98478
2018-05-10T03:35:33.928Z,98484
2018-05-10T03:37:37.099Z,98483
2018-05-10T03:39:41.359Z,98490
2018-05-10T03:41:44.552Z,98477
2018-05-10T03:43:48.147Z,98491
2018-05-10T03:45:52.103Z,98492
2018-05-10T03:47:55.256Z,98492
2018-05-10T03:49:58.412Z,98496
2018-05-10T03:52:01.590Z,98499
2018-05-10T03:54:05.530Z,98505
2018-05-10T03:56:08.715Z,98510
2018-05-10T03:58:13.007Z,98515
2018-05-10T04:00:16.764Z,98515
2018-05-10T04:05:14.127Z,98513
2018-05-10T04:07:36.793Z,98514
2018-05-10T04:09:58.178Z,98516
2018-05-10T04:12:01.731Z,98516
2018-05-10T04:14:05.220Z,98523
2018-05-10T04:16:08.855Z,98527
2018-05-10T04:18:12.477Z,98526
2018-05-10T04:20:16.066Z,98525
2018-05-10T04:22:19.250Z,98518
2018-05-10T04:24:23.407Z,98528
2018-05-10T04:26:26.588Z,98524
2018-05-10T04:28:29.738Z,98537
2018-05-10T04:30:32.914Z,98539
2018-05-10T04:32:36.070Z,98539
2018-05-10T04:34:39.250Z,98535
2018-05-10T04:36:43.546Z,98542
2018-05-10T04:38:46.691Z,98541
2018-05-10T04:40:49.874Z,98545
2018-05-10T04:42:53.046Z,98542
2018-05-10T04:44:56.199Z,98541
2018-05-10T04:46:59.375Z,98550
2018-05-10T04:49:04.442Z,98547
2018-05-10T04:51:07.636Z,98557
2018-05-10T04:53:11.565Z,98551
2018-05-10T04:55:15.511Z,98543
2018-05-10T04:57:18.690Z,98551
2018-05-10T04:59:23.762Z,98549
2018-05-10T05:01:26.954Z,98559
2018-05-10T05:03:30.942Z,98559
2018-05-10T05:05:34.802Z,98558
2018-05-10T05:07:38.751Z,98564
2018-05-10T05:09:41.907Z,98564
2018-05-10T05:11:45.087Z,98576
2018-05-10T05:13:48.235Z,98577
2018-05-10T05:15:52.159Z,98576
2018-05-10T05:17:55.339Z,98577
2018-05-10T05:19:58.497Z,98575
2018-05-10T05:22:02.465Z,98576
2018-05-10T05:24:05.633Z,98580
2018-05-10T05:26:09.556Z,98579
2018-05-10T05:28:13.507Z,98584
2018-05-10T05:30:16.689Z,98596
2018-05-10T05:32:20.639Z,98596
2018-05-10T05:34:25.209Z,98589
2018-05-10T05:36:28.363Z,98596
2018-05-10T05:38:32.309Z,98601
2018-05-10T05:40:35.476Z,98611
2018-05-10T05:42:38.660Z,98610
2018-05-10T05:44:41.815Z,98613
2018-05-10T05:46:45.763Z,98611
2018-05-10T05:48:48.915Z,98624
2018-05-10T05:50:52.110Z,98622
2018-05-10T05:52:55.467Z,98619
2018-05-10T05:54:58.666Z,98617
2018-05-10T05:57:01.877Z,98621
2018-05-10T05:59:05.792Z,98623
2018-05-10T06:01:08.943Z,98634
2018-05-10T06:03:12.115Z,98628
2018-05-10T06:05:15.286Z,98632
2018-05-10T06:07:18.471Z,98627
2018-05-10T06:09:21.666Z,98628
2018-05-10T06:11:24.816Z,98635
2018-05-10T06:13:28.011Z,98636
2018-05-10T06:15:31.224Z,98650
2018-05-10T06:17:34.384Z,98642
2018-05-10T06:19:38.298Z,98644
2018-05-10T06:21:42.214Z,98645
2018-05-10T06:23:46.165Z,98648
2018-05-10T06:25:50.080Z,98656
2018-05-10T06:27:54.114Z,98669
2018-05-10T06:29:58.059Z,98672
2018-05-10T06:32:01.210Z,98672
2018-05-10T06:34:05.495Z,98678
2018-05-10T06:36:09.455Z,98679
2018-05-10T06:38:13.015Z,98677
2018-05-10T06:40:16.186Z,98667
2018-05-10T06:42:19.379Z,98673
2018-05-10T06:44:22.542Z,98674
2018-05-10T06:46:26.463Z,98674
2018-05-10T06:48:30.415Z,98680
2018-05-10T06:50:33.572Z,98683
2018-05-10T06:52:36.764Z,98676
2018-05-10T06:54:40.010Z,98680
2018-05-10T06:56:43.094Z,98681
2018-05-10T06:58:46.320Z,98689
2018-05-10T07:00:49.540Z,98682
2018-05-10T07:02:53.481Z,98693
2018-05-10T07:04:56.676Z,98685
2018-05-10T07:07:00.598Z,98693
2018-05-10T07:09:05.695Z,98697
2018-05-10T07:11:08.997Z,98695
2018-05-10T07:13:12.228Z,98697
2018-05-10T07:15:15.379Z,98689
2018-05-10T07:17:18.527Z,98695
2018-05-10T07:19:21.727Z,98690
2018-05-10T07:21:25.923Z,98696
2018-05-10T07:23:29.888Z,98696
2018-05-10T07:25:33.046Z,98699
2018-05-10T07:27:36.195Z,98685
2018-05-10T07:29:39.366Z,98701
2018-05-10T07:31:42.521Z,98698
2018-05-10T07:33:45.695Z,98703
2018-05-10T07:35:49.619Z,98702
2018-05-10T07:37:53.596Z,98702
2018-05-10T07:39:56.743Z,98698
2018-05-10T07:42:00.704Z,98699
2018-05-10T07:44:05.746Z,98703
2018-05-10T07:46:09.659Z,98698
2018-05-10T07:48:13.604Z,98702
2018-05-10T07:50:16.751Z,98708
2018-05-10T07:52:19.918Z,98712
2018-05-10T07:54:23.857Z,98716
2018-05-10T07:56:27.005Z,98713
2018-05-10T07:58:30.174Z,98717
2018-05-10T08:00:33.318Z,98720
2018-05-10T08:02:36.468Z,98721
2018-05-10T08:04:40.402Z,98725
2018-05-10T08:06:43.544Z,98734
2018-05-10T08:08:46.742Z,98730
2018-05-10T08:10:49.918Z,98734
2018-05-10T08:12:53.835Z,98732
2018-05-10T08:14:57.923Z,98748
2018-05-10T08:17:01.184Z,98744
2018-05-10T08:19:06.256Z,98749
2018-05-10T08:21:09.429Z,98751
2018-05-10T08:23:13.348Z,98757
2018-05-10T08:25:16.523Z,98755
2018-05-10T08:27:19.676Z,98763
2018-05-10T08:29:23.611Z,98766
2018-05-10T08:31:26.772Z,98765
2018-05-10T08:33:30.024Z,98780
2018-05-10T08:35:33.968Z,98778
2018-05-10T08:37:37.132Z,98785
2018-05-10T08:39:40.307Z,98782
2018-05-10T08:41:43.446Z,98783
2018-05-10T08:43:46.631Z,98796
2018-05-10T08:45:49.791Z,98804
2018-05-10T08:47:53.703Z,98812
2018-05-10T08:49:57.646Z,98809
2018-05-10T08:52:01.585Z,98819
2018-05-10T08:54:06.635Z,98818
2018-05-10T08:56:09.810Z,98820
2018-05-10T08:58:12.983Z,98821
2018-05-10T09:00:16.154Z,98820
2018-05-10T09:02:19.302Z,98826
2018-05-10T09:04:22.483Z,98826
2018-05-10T09:06:27.005Z,98829
2018-05-10T09:08:30.154Z,98830
2018-05-10T09:10:33.326Z,98829
2018-05-10T09:12:36.478Z,98833
2018-05-10T09:14:39.658Z,98839
2018-05-10T09:16:42.836Z,98842
2018-05-10T09:18:46.022Z,98847
2018-05-10T09:20:49.202Z,98852
2018-05-10T09:22:52.367Z,98859
2018-05-10T09:24:56.515Z,98863
2018-05-10T09:26:59.803Z,98866
2018-05-10T09:29:03.221Z,98865
2018-05-10T09:31:06.518Z,98877
2018-05-10T09:33:10.556Z,98867
2018-05-10T09:35:13.754Z,98877
2018-05-10T09:37:16.926Z,98880
2018-05-10T09:39:20.234Z,98883
2018-05-10T09:41:24.118Z,98891
2018-05-10T09:43:27.370Z,98897
2018-05-10T09:45:30.553Z,98893
2018-05-10T09:47:33.698Z,98902
2018-05-10T09:49:36.855Z,98904
2018-05-10T09:51:40.039Z,98905
2018-05-10T09:53:43.216Z,98908
2018-05-10T09:55:46.396Z,98915
2018-05-10T09:57:49.639Z,98926
2018-05-10T09:59:52.817Z,98915
2018-05-10T10:01:55.999Z,98925
2018-05-10T10:03:59.919Z,98919
2018-05-10T10:06:03.879Z,98927
2018-05-10T10:08:07.073Z,98928
2018-05-10T10:10:10.567Z,98931
2018-05-10T10:12:14.492Z,98932
2018-05-10T10:14:18.417Z,98941
2018-05-10T10:16:22.366Z,98936
2018-05-10T10:18:25.523Z,98950
2018-05-10T10:20:31.339Z,98949
2018-05-10T10:22:34.611Z,98943
2018-05-10T10:24:37.875Z,98953
2018-05-10T10:26:41.053Z,98952
2018-05-10T10:28:44.219Z,98957
2018-05-10T10:30:47.398Z,98955
2018-05-10T10:32:50.555Z,98963
2018-05-10T10:34:53.721Z,98972
2018-05-10T10:36:56.912Z,98975
2018-05-10T10:39:00.074Z,98968
2018-05-10T10:41:03.259Z,98978
2018-05-10T10:43:06.419Z,98981
2018-05-10T10:45:10.067Z,98989
2018-05-10T10:47:13.277Z,98992
2018-05-10T10:49:16.459Z,98995
2018-05-10T10:51:20.413Z,99001
2018-05-10T10:53:23.608Z,99005
2018-05-10T10:55:26.803Z,99005
2018-05-10T10:57:30.175Z,99015
2018-05-10T10:59:33.329Z,99022
2018-05-10T11:01:36.554Z,99026
2018-05-10T11:03:40.486Z,99021
2018-05-10T11:05:43.662Z,99019
2018-05-10T11:07:47.603Z,99032
2018-05-10T11:09:50.755Z,99038
2018-05-10T11:11:53.942Z,99036
2018-05-10T11:13:57.126Z,99048
2018-05-10T11:16:00.300Z,99044
2018-05-10T11:18:03.439Z,99048
2018-05-10T11:20:07.116Z,99050
2018-05-10T11:22:11.810Z,99053
2018-05-10T11:24:14.965Z,99054
2018-05-10T11:26:18.140Z,99058
2018-05-10T11:28:21.287Z,99055
2018-05-10T11:30:24.434Z,99070
2018-05-10T11:32:27.608Z,99077
2018-05-10T11:34:30.757Z,99073
2018-05-10T11:36:34.323Z,99075
2018-05-10T11:38:37.499Z,99081
2018-05-10T11:40:40.656Z,99074
2018-05-10T11:42:43.839Z,99081
2018-05-10T11:44:46.983Z,99077
2018-05-10T11:46:50.926Z,99077
2018-05-10T11:48:54.068Z,99075
2018-05-10T11:50:57.234Z,99064
2018-05-10T11:53:01.167Z,99068
2018-05-10T11:55:04.317Z,99066
2018-05-10T11:57:07.482Z,99068
2018-05-10T11:59:10.626Z,99070
2018-05-10T12:01:14.676Z,99069
2018-05-10T12:03:17.862Z,99077
2018-05-10T12:05:21.012Z,99069
2018-05-10T12:07:24.955Z,99073
2018-05-10T12:09:28.868Z,99066
2018-05-10T12:11:33.951Z,99071
2018-05-10T12:13:37.090Z,99075
2018-05-10T12:15:40.306Z,99068
2018-05-10T12:17:43.429Z,99079
2018-05-10T12:19:46.579Z,99072
2018-05-10T12:21:49.755Z,99082
2018-05-10T12:23:54.822Z,99086
2018-05-10T12:25:58.760Z,99088
2018-05-10T12:28:01.948Z,99092
2018-05-10T12:30:05.864Z,99092
2018-05-10T12:32:09.819Z,99098
2018-05-10T12:34:14.108Z,99093
2018-05-10T12:36:17.256Z,99099
2018-05-10T12:38:20.442Z,99104
2018-05-10T12:40:24.351Z,99092
2018-05-10T12:42:27.518Z,99104
2018-05-10T12:44:30.664Z,99102
2018-05-10T12:46:34.261Z,99105
2018-05-10T12:48:37.517Z,99113
2018-05-10T12:50:40.601Z,99103
2018-05-10T12:52:43.807Z,99107
2018-05-10T12:54:46.955Z,99108
2018-05-10T12:56:50.100Z,99121
2018-05-10T12:58:54.394Z,99119
2018-05-10T13:00:57.539Z,99113
2018-05-10T13:03:00.710Z,99120
2018-05-10T13:05:03.859Z,99116
2018-05-10T13:07:07.002Z,99122
2018-05-10T13:09:10.938Z,99132
2018-05-10T13:11:14.557Z,99123
2018-05-10T13:13:18.519Z,99129
2018-05-10T13:15:21.667Z,99129
2018-05-10T13:17:24.810Z,99141
2018-05-10T13:19:28.027Z,99134
2018-05-10T13:21:31.181Z,99146
2018-05-10T13:23:34.604Z,99145
2018-05-10T13:25:37.771Z,99146
2018-05-10T13:27:40.919Z,99145
2018-05-10T13:29:44.123Z,99148
2018-05-10T13:31:47.275Z,99160
2018-05-10T13:33:50.455Z,99157
2018-05-10T13:35:54.730Z,99161
2018-05-10T13:37:57.902Z,99168
2018-05-10T13:40:01.818Z,99174
2018-05-10T13:42:04.972Z,99169
2018-05-10T13:44:08.158Z,99171
2018-05-10T13:46:12.107Z,99179
2018-05-10T13:48:17.641Z,99172
2018-05-10T13:50:20.929Z,99180
2018-05-10T13:52:24.857Z,99189
2018-05-10T13:54:28.039Z,99193
2018-05-10T13:56:31.196Z,99183
2018-05-10T13:58:34.970Z,99181
2018-05-10T14:00:38.127Z,99178
2018-05-10T14:02:42.043Z,99190
2018-05-10T14:04:46.138Z,99193
2018-05-10T14:06:49.365Z,99194
2018-05-10T14:08:52.529Z,99187
2018-05-10T14:10:55.779Z,99192
2018-05-10T14:12:59.629Z,99195
2018-05-10T14:15:03.571Z,99191
2018-05-10T14:17:06.722Z,99200
2018-05-10T14:19:09.902Z,99202
2018-05-10T14:21:13.052Z,99215
2018-05-10T14:23:16.206Z,99210
2018-05-10T14:25:20.020Z,99208
2018-05-10T14:27:23.963Z,99213
2018-05-10T14:29:27.162Z,99216
2018-05-10T14:31:30.320Z,99227
2018-05-10T14:33:33.471Z,99223
2018-05-10T14:35:36.659Z,99223
2018-05-10T14:37:40.574Z,99221
2018-05-10T14:39:43.751Z,99216
2018-05-10T14:41:46.916Z,99228
2018-05-10T14:43:50.871Z,99222
2018-05-10T14:45:54.023Z,99228
2018-05-10T14:47:58.685Z,99230
2018-05-10T14:50:02.635Z,99229
2018-05-10T14:52:05.823Z,99238
2018-05-10T14:54:09.860Z,99239
2018-05-10T14:56:12.939Z,99242
2018-05-10T14:58:16.866Z,99237
2018-05-10T15:00:20.807Z,99248
2018-05-10T15:02:24.732Z,99247
2018-05-10T15:04:28.682Z,99256
2018-05-10T15:06:31.836Z,99254
2018-05-10T15:08:36.499Z,99254
2018-05-10T15:10:40.451Z,99255
2018-05-10T15:12:43.639Z,99269
2018-05-10T15:14:47.584Z,99265
2018-05-10T15:16:50.767Z,99262
2018-05-10T15:18:55.821Z,99274
2018-05-10T15:20:59.770Z,99269
2018-05-10T15:23:02.940Z,99275
2018-05-10T15:25:06.119Z,99270
2018-05-10T15:27:09.290Z,99277
2018-05-10T15:29:12.484Z,99271
2018-05-10T15:31:16.723Z,99267
2018-05-10T15:33:19.886Z,99284
2018-05-10T15:35:23.067Z,99279
2018-05-10T15:37:26.223Z,99277
2018-05-10T15:39:29.399Z,99292
2018-05-10T15:41:32.559Z,99295
2018-05-10T15:43:36.012Z,99291
2018-05-10T15:45:39.196Z,99298
2018-05-10T15:47:42.351Z,99296
2018-05-10T15:49:45.544Z,99309
2018-05-10T15:51:48.745Z,99308
2018-05-10T15:53:51.897Z,99308
2018-05-10T15:55:56.992Z,99312
2018-05-10T15:58:00.160Z,99307
2018-05-10T16:00:04.122Z,99311
2018-05-10T16:02:07.411Z,99316
2018-05-10T16:04:11.341Z,99314
2018-05-10T16:06:16.419Z,99315
2018-05-10T16:08:19.596Z,99325
2018-05-10T16:10:23.540Z,99326
2018-05-10T16:12:26.719Z,99333
2018-05-10T16:14:30.935Z,99324
2018-05-10T16:16:34.115Z,99326
2018-05-10T16:18:37.459Z,99332
2018-05-10T16:20:40.644Z,99328
2018-05-10T16:22:43.799Z,99335
2018-05-10T16:24:47.716Z,99336
2018-05-10T16:26:51.661Z,99344
2018-05-10T16:28:54.819Z,99339
2018-05-10T16:30:57.994Z,99344
2018-05-10T16:33:01.151Z,99350
2018-05-10T16:35:04.337Z,99349
2018-05-10T16:37:07.514Z,99351
2018-05-10T16:39:10.678Z,99350
2018-05-10T16:41:13.863Z,99352
2018-05-10T16:43:17.016Z,99352
2018-05-10T16:45:20.984Z,99340
2018-05-10T16:47:24.135Z,99349
2018-05-10T16:49:27.281Z,99339
2018-05-10T16:51:30.470Z,99345
2018-05-10T16:53:34.393Z,99345
2018-05-10T16:55:38.342Z,99347
2018-05-10T16:57:42.266Z,99355
2018-05-10T16:59:45.427Z,99358
2018-05-10T17:01:48.619Z,99364
2018-05-10T17:03:51.784Z,99357
2018-05-10T17:05:54.954Z,99364
2018-05-10T17:07:58.112Z,99371
2018-05-10T17:10:01.271Z,99379
2018-05-10T17:12:04.455Z,99376
2018-05-10T17:14:07.609Z,99386
2018-05-10T17:16:11.601Z,99378
2018-05-10T17:18:14.750Z,99391
2018-05-10T17:20:17.901Z,99393
2018-05-10T17:22:21.087Z,99401
2018-05-10T17:24:24.254Z,99404
2018-05-10T17:26:28.204Z,99395
2018-05-10T17:28:31.374Z,99406
2018-05-10T17:30:34.524Z,99416
2018-05-10T17:32:37.714Z,99422
2018-05-10T17:34:41.640Z,99422
2018-05-10T17:36:47.994Z,99425
2018-05-10T17:38:51.178Z,99428
2018-05-10T17:40:54.356Z,99436
2018-05-10T17:42:57.509Z,99448
2018-05-10T17:45:00.658Z,99438
2018-05-10T17:47:04.600Z,99445
2018-05-10T17:49:07.751Z,99458
2018-05-10T17:51:10.920Z,99464
2018-05-10T17:53:14.067Z,99462
2018-05-10T17:55:17.340Z,99463
2018-05-10T17:57:20.520Z,99468
2018-05-10T17:59:24.431Z,99469
2018-05-10T18:01:28.375Z,99480
2018-05-10T18:03:32.286Z,99481
2018-05-10T18:05:37.359Z,99481
2018-05-10T18:07:41.298Z,99489
2018-05-10T18:09:44.456Z,99497
2018-05-10T18:11:47.628Z,99506
2018-05-10T18:13:50.979Z,99501
2018-05-10T18:18:02.647Z,99512
2018-05-10T18:20:06.559Z,99517
2018-05-10T18:22:10.497Z,99514
2018-05-10T18:24:14.414Z,99520
2018-05-10T18:26:18.318Z,99525
2018-05-10T18:28:22.307Z,99533
2018-05-10T18:30:25.454Z,99546
2018-05-10T18:32:28.631Z,99544
2018-05-10T18:34:31.774Z,99555
2018-05-10T18:36:34.960Z,99544
2018-05-10T18:38:38.111Z,99549
2018-05-10T18:40:43.151Z,99550
2018-05-10T18:42:47.111Z,99560
2018-05-10T18:44:50.257Z,99565
2018-05-10T18:46:53.431Z,99562
2018-05-10T18:48:56.581Z,99569
2018-05-10T18:50:59.727Z,99563
2018-05-10T18:53:03.756Z,99576
2018-05-10T18:55:06.902Z,99586
2018-05-10T18:57:10.081Z,99582
2018-05-10T18:59:13.260Z,99584
2018-05-10T19:01:17.178Z,99582
2018-05-10T19:03:20.347Z,99589
2018-05-10T19:05:23.496Z,99587
2018-05-10T19:07:27.462Z,99596
2018-05-10T19:09:30.595Z,99602
2018-05-10T19:11:34.484Z,99612
2018-05-10T19:13:37.652Z,99610
2018-05-10T19:15:40.804Z,99614
2018-05-10T19:17:43.979Z,99613
2018-05-10T19:19:47.123Z,99620
2018-05-10T19:21:50.266Z,99627
2018-05-10T19:23:53.484Z,99634
2018-05-10T19:25:56.598Z,99632
2018-05-10T19:27:59.777Z,99631
2018-05-10T19:30:05.175Z,99627
2018-05-10T19:32:08.319Z,99626
2018-05-10T19:34:11.504Z,99638
2018-05-10T19:36:15.443Z,99646
2018-05-10T19:38:18.615Z,99648
2018-05-10T19:40:24.388Z,99651
2018-05-10T19:42:28.331Z,99659
2018-05-10T19:44:32.271Z,99656
2018-05-10T19:46:35.412Z,99654
2018-05-10T19:48:38.594Z,99670
2018-05-10T19:50:41.744Z,99678
2018-05-10T19:52:45.358Z,99677
2018-05-10T19:54:48.508Z,99676
2018-05-10T19:56:52.538Z,99679
2018-05-10T19:58:55.635Z,99688
2018-05-10T20:00:59.542Z,99691
2018-05-10T20:03:03.822Z,99698
2018-05-10T20:05:06.971Z,99699
2018-05-10T20:07:10.140Z,99699
2018-05-10T20:09:13.310Z,99703
2018-05-10T20:11:17.219Z,99714
2018-05-10T20:13:21.915Z,99706
2018-05-10T20:15:31.059Z,99708
2018-05-10T20:17:34.194Z,99712
2018-05-10T20:19:37.383Z,99708
2018-05-10T20:21:40.526Z,99714
2018-05-10T20:23:44.215Z,99713
2018-05-10T20:25:47.376Z,99717
2018-05-10T20:27:51.366Z,99717
2018-05-10T20:29:54.507Z,99730
2018-05-10T20:31:57.655Z,99729
2018-05-10T20:34:00.832Z,99728
2018-05-10T20:36:04.430Z,99740
2018-05-10T20:38:07.551Z,99735
2018-05-10T20:40:11.463Z,99744
2018-05-10T20:42:14.694Z,99736
2018-05-10T20:44:18.630Z,99746
2018-05-10T20:46:21.774Z,99744
2018-05-10T20:48:24.951Z,99746
2018-05-10T20:50:28.101Z,99741
2018-05-10T20:52:31.249Z,99753
2018-05-10T20:54:35.188Z,99763
2018-05-10T20:56:38.363Z,99760
2018-05-10T20:58:41.544Z,99757
2018-05-10T21:00:44.763Z,99767
2018-05-10T21:02:47.913Z,99768
2018-05-10T21:04:51.857Z,99762
2018-05-10T21:06:55.020Z,99766
2018-05-10T21:08:58.207Z,99767
2018-05-10T21:11:01.374Z,99760
2018-05-10T21:13:04.519Z,99762
2018-05-10T21:15:07.699Z,99767
2018-05-10T21:17:10.856Z,99764
2018-05-10T21:19:14.033Z,99776
2018-05-10T21:21:17.203Z,99776
2018-05-10T21:23:21.143Z,99783
2018-05-10T21:25:24.315Z,99779
2018-05-10T21:27:27.493Z,99788
2018-05-10T21:29:30.855Z,99793
2018-05-10T21:31:34.043Z,99796
2018-05-10T21:33:38.472Z,99798
2018-05-10T21:35:41.977Z,99798
2018-05-10T21:37:46.274Z,99799
2018-05-10T21:39:49.443Z,99806
2018-05-10T21:41:52.627Z,99813
2018-05-10T21:43:55.837Z,99808
2018-05-10T21:45:59.363Z,99810
2018-05-10T21:48:02.854Z,99817
2018-05-10T21:50:08.044Z,99823
2018-05-10T21:52:13.790Z,99820
2018-05-10T21:54:21.016Z,99831
2018-05-10T21:56:26.587Z,99827
2018-05-10T21:58:30.494Z,99828
2018-05-10T22:00:33.674Z,99824
2018-05-10T22:02:36.819Z,99827
2018-05-10T22:04:40.752Z,99838
2018-05-10T22:06:44.700Z,99838
2018-05-10T22:08:48.656Z,99831
2018-05-10T22:10:51.936Z,99828
2018-05-10T22:12:55.183Z,99833
2018-05-10T22:14:58.364Z,99835
2018-05-10T22:17:01.525Z,99827
2018-05-10T22:19:04.671Z,99833
2018-05-10T22:21:07.847Z,99828
2018-05-10T22:23:10.990Z,99833
2018-05-10T22:25:14.149Z,99829
2018-05-10T22:27:17.299Z,99836
2018-05-10T22:29:20.454Z,99831
2018-05-10T22:31:24.858Z,99831
2018-05-10T22:33:29.055Z,99828
2018-05-10T22:35:33.416Z,99837
2018-05-10T22:37:37.291Z,99842
2018-05-10T22:39:40.472Z,99837
2018-05-10T22:41:48.381Z,99836
2018-05-10T22:43:57.337Z,99847
2018-05-10T22:46:02.568Z,99850
2018-05-10T22:48:06.864Z,99847
2018-05-10T22:50:10.014Z,99846
2018-05-10T22:52:13.188Z,99860
2018-05-10T22:54:17.099Z,99855
2018-05-10T22:56:21.051Z,99857
2018-05-10T22:58:24.250Z,99857
2018-05-10T23:00:28.189Z,99854
2018-05-10T23:02:31.334Z,99863
2018-05-10T23:04:34.474Z,99862
2018-05-10T23:06:37.644Z,99861
2018-05-10T23:08:40.799Z,99873
2018-05-10T23:10:44.735Z,99860
2018-05-10T23:12:47.888Z,99861
2018-05-10T23:14:51.077Z,99860
2018-05-10T23:16:54.248Z,99858
2018-05-10T23:18:58.163Z,99859
2018-05-10T23:21:01.314Z,99863
2018-05-10T23:23:04.494Z,99869
2018-05-10T23:25:08.406Z,99866
2018-05-10T23:27:11.571Z,99870
2018-05-10T23:29:14.709Z,99866
2018-05-10T23:31:19.478Z,99866
2018-05-10T23:33:23.378Z,99857
2018-05-10T23:35:27.338Z,99864
2018-05-10T23:37:30.443Z,99869
2018-05-10T23:39:35.675Z,99864
2018-05-10T23:41:38.869Z,99863
2018-05-10T23:43:43.518Z,99860
2018-05-10T23:45:47.384Z,99869
2018-05-10T23:47:50.562Z,99857
2018-05-10T23:49:53.704Z,99868
2018-05-10T23:51:56.879Z,99868
2018-05-10T23:54:00.022Z,99866
2018-05-10T23:56:03.171Z,99868
2018-05-10T23:58:07.463Z,99873
